Time;durP1;ratioP1;P1;durP2;ratioP2;P2;SDS_P1;SDS_P2;PMS_P1;PMS_P2;Temp;Humidity;BMP_temperature;BMP_pressure;BME280_temperature;BME280_humidity;BME280_pressure;Samples;Min_cycle;Max_cycle;Signal;HPM_P1;HPM_P2
2022/08/18 00:01:51;;;;;;;9.90;6.07;;;20.80;1.00;;;;;;7372022;19;20053;-66
2022/08/18 00:04:23;;;;;;;8.10;6.38;;;20.60;1.00;;;;;;7337823;19;20014;-66
2022/08/18 00:07:05;;;;;;;11.50;6.05;;;20.50;1.00;;;;;;7354888;19;20416;-66
2022/08/18 00:09:37;;;;;;;7.60;6.78;;;20.50;2.50;;;;;;7349258;19;20013;-67
2022/08/18 00:12:10;;;;;;;7.88;7.07;;;20.40;6.10;;;;;;7358273;19;20458;-67
2022/08/18 00:14:40;;;;;;;9.77;7.40;;;20.30;9.00;;;;;;7337419;19;20018;-67
2022/08/18 00:17:10;;;;;;;8.27;7.40;;;20.20;10.10;;;;;;7355175;19;20014;-67
2022/08/18 00:19:43;;;;;;;9.23;7.22;;;20.10;11.40;;;;;;7370412;19;20014;-66
2022/08/18 00:22:19;;;;;;;8.57;7.68;;;20.10;12.70;;;;;;7355667;19;20025;-67
2022/08/18 00:24:52;;;;;;;8.70;6.90;;;20.00;13.30;;;;;;7338915;19;20014;-66
2022/08/18 00:27:24;;;;;;;8.52;7.70;;;20.00;14.60;;;;;;7355952;19;20015;-66
2022/08/18 00:30:00;;;;;;;8.50;7.70;;;19.90;13.90;;;;;;7349645;19;20468;-66
2022/08/18 00:32:34;;;;;;;8.15;7.35;;;19.90;14.60;;;;;;7364781;19;20027;-66
2022/08/18 00:35:14;;;;;;;8.13;7.30;;;19.80;16.50;;;;;;7367917;19;20014;-66
2022/08/18 00:37:44;;;;;;;8.77;7.85;;;19.80;17.30;;;;;;7362727;19;20096;-67
2022/08/18 00:40:18;;;;;;;8.27;7.47;;;19.70;17.10;;;;;;7355601;19;20019;-66
2022/08/18 00:42:51;;;;;;;9.13;7.60;;;19.70;17.10;;;;;;7362343;19;20006;-66
2022/08/18 00:45:24;;;;;;;9.63;8.02;;;19.70;18.10;;;;;;7346380;19;20010;-66
2022/08/18 00:47:57;;;;;;;9.35;7.50;;;19.70;18.10;;;;;;7361712;19;20018;-66
2022/08/18 00:50:34;;;;;;;8.60;7.35;;;19.70;18.80;;;;;;7354789;19;20038;-66
2022/08/18 00:53:10;;;;;;;8.73;7.78;;;19.70;19.60;;;;;;7384478;19;20023;-66
2022/08/18 00:55:43;;;;;;;7.63;6.75;;;19.60;20.60;;;;;;7346197;19;20011;-67
2022/08/18 00:58:28;;;;;;;8.85;7.38;;;19.60;19.60;;;;;;7362769;19;20010;-66
2022/08/18 01:00:58;;;;;;;9.35;7.28;;;19.60;20.70;;;;;;7354808;19;20843;-66
2022/08/18 01:03:29;;;;;;;8.23;7.18;;;19.60;21.60;;;;;;7361263;19;20010;-66
2022/08/18 01:06:06;;;;;;;8.00;7.20;;;19.60;21.40;;;;;;7344939;19;20130;-66
2022/08/18 01:08:37;;;;;;;8.85;7.00;;;19.60;22.40;;;;;;7363390;19;20019;-66
2022/08/18 01:11:09;;;;;;;8.18;6.75;;;19.50;22.60;;;;;;7357491;19;20347;-66
2022/08/18 01:13:42;;;;;;;7.25;6.55;;;19.50;23.30;;;;;;7381405;19;20035;-66
2022/08/18 01:21:54;;;;;;;7.25;6.30;;;19.40;21.50;;;;;;7352645;19;20021;-67
2022/08/18 01:27:16;;;;;;;7.93;6.13;;;19.30;19.80;;;;;;7360650;19;20537;-66
2022/08/18 01:29:46;;;;;;;7.50;6.72;;;19.30;19.60;;;;;;7354237;19;20019;-66
2022/08/18 01:32:19;;;;;;;7.40;6.70;;;19.30;21.30;;;;;;7362262;19;20010;-67
2022/08/18 01:34:50;;;;;;;8.32;6.57;;;19.50;21.50;;;;;;7364964;19;20010;-67
2022/08/18 01:37:24;;;;;;;7.03;6.35;;;19.50;17.30;;;;;;7359276;19;20078;-65
2022/08/18 01:39:57;;;;;;;7.00;6.15;;;19.50;17.40;;;;;;7353842;19;20014;-66
2022/08/18 01:42:47;;;;;;;7.07;6.38;;;19.50;18.50;;;;;;7358577;19;20439;-66
2022/08/18 01:45:19;;;;;;;8.27;7.47;;;19.40;18.40;;;;;;7345136;19;20011;-66
2022/08/18 01:47:49;;;;;;;9.57;7.35;;;19.30;21.50;;;;;;7358138;19;20035;-66
2022/08/18 01:50:19;;;;;;;9.32;7.88;;;19.20;23.30;;;;;;7351798;19;20013;-66
2022/08/18 01:52:52;;;;;;;8.48;7.57;;;19.20;24.10;;;;;;7381488;19;20025;-65
2022/08/18 01:55:27;;;;;;;10.85;8.20;;;19.30;24.90;;;;;;7344757;19;20018;-66
2022/08/18 01:57:57;;;;;;;10.07;8.45;;;19.20;25.60;;;;;;7359809;19;20006;-66
2022/08/18 02:00:27;;;;;;;9.38;8.25;;;19.20;26.10;;;;;;7351222;19;20360;-66
2022/08/18 02:02:58;;;;;;;8.48;7.68;;;19.10;27.50;;;;;;7358925;19;20011;-67
2022/08/18 02:05:36;;;;;;;9.95;8.95;;;19.00;28.10;;;;;;7342183;19;20011;-66
2022/08/18 02:08:07;;;;;;;10.13;9.00;;;19.00;28.60;;;;;;7381217;19;20014;-66
2022/08/18 02:10:40;;;;;;;12.82;9.05;;;19.10;29.80;;;;;;7350301;19;20086;-66
2022/08/18 02:13:11;;;;;;;9.63;8.63;;;19.10;30.80;;;;;;7357177;19;20010;-67
2022/08/18 02:15:41;;;;;;;10.98;9.75;;;19.10;30.20;;;;;;7344445;19;20942;-66
2022/08/18 02:18:16;;;;;;;10.07;8.48;;;19.10;30.40;;;;;;7358807;19;20530;-67
2022/08/18 02:21:10;;;;;;;9.90;8.77;;;18.90;32.00;;;;;;7350735;19;20047;-67
2022/08/18 02:23:42;;;;;;;11.63;9.43;;;18.90;33.80;;;;;;7357859;19;20082;-66
2022/08/18 02:26:25;;;;;;;10.77;9.77;;;19.00;34.90;;;;;;7355403;19;20042;-66
2022/08/18 02:28:55;;;;;;;10.68;8.73;;;19.00;32.50;;;;;;7380731;19;20026;-66
2022/08/18 02:31:27;;;;;;;9.68;8.68;;;19.00;33.10;;;;;;7351624;19;20580;-66
2022/08/18 02:33:58;;;;;;;10.52;9.52;;;19.00;33.30;;;;;;7341957;19;20015;-66
2022/08/18 02:36:28;;;;;;;11.23;9.52;;;19.00;32.00;;;;;;7356974;19;20023;-67
2022/08/18 02:38:58;;;;;;;10.68;9.13;;;19.00;30.80;;;;;;7359252;19;20097;-67
2022/08/18 02:41:31;;;;;;;11.13;9.35;;;18.90;30.90;;;;;;7350974;19;20004;-67
2022/08/18 02:44:01;;;;;;;10.75;9.10;;;18.90;31.90;;;;;;7366060;19;20393;-67
2022/08/18 02:46:31;;;;;;;10.63;9.48;;;18.90;31.90;;;;;;7358373;19;20119;-67
2022/08/18 02:49:02;;;;;;;10.27;9.27;;;19.00;32.00;;;;;;7357123;19;20019;-67
2022/08/18 02:51:32;;;;;;;9.23;7.97;;;19.00;30.90;;;;;;7351622;19;20018;-67
2022/08/18 02:54:02;;;;;;;8.20;7.40;;;19.00;28.80;;;;;;7340966;19;20017;-66
2022/08/18 02:56:35;;;;;;;9.20;8.30;;;19.00;27.50;;;;;;7359110;19;20478;-66
2022/08/18 02:59:13;;;;;;;9.88;7.38;;;19.00;26.60;;;;;;7358805;19;20055;-66
2022/08/18 03:01:46;;;;;;;9.63;8.23;;;19.00;27.50;;;;;;7372761;19;20025;-67
2022/08/18 03:04:22;;;;;;;8.00;7.22;;;19.10;26.90;;;;;;7340127;19;20043;-67
2022/08/18 03:06:59;;;;;;;7.93;7.15;;;19.20;27.10;;;;;;7356488;19;20450;-66
2022/08/18 03:09:30;;;;;;;8.05;7.25;;;19.20;24.90;;;;;;7353346;19;20007;-68
2022/08/18 03:12:04;;;;;;;7.15;6.45;;;19.20;24.80;;;;;;7357680;19;20565;-66
2022/08/18 03:14:35;;;;;;;7.80;6.85;;;19.20;24.00;;;;;;7339650;19;20014;-66
2022/08/18 03:17:07;;;;;;;7.57;6.88;;;19.20;23.70;;;;;;7379142;19;20722;-66
2022/08/18 03:19:37;;;;;;;7.40;6.68;;;19.20;23.60;;;;;;7351430;19;20018;-67
2022/08/18 03:22:10;;;;;;;8.02;6.78;;;19.20;22.90;;;;;;7357000;19;20545;-66
2022/08/18 03:24:58;;;;;;;7.40;6.65;;;19.10;21.80;;;;;;7341821;19;20021;-66
2022/08/18 03:27:31;;;;;;;7.85;6.95;;;19.00;23.50;;;;;;7357200;19;20010;-66
2022/08/18 03:30:01;;;;;;;7.47;6.68;;;19.10;23.10;;;;;;7351658;19;20014;-66
2022/08/18 03:32:31;;;;;;;6.95;6.35;;;19.10;22.40;;;;;;7356154;19;20450;-67
2022/08/18 03:35:01;;;;;;;8.85;6.82;;;19.10;22.20;;;;;;7363684;19;20026;-66
2022/08/18 03:37:32;;;;;;;8.30;7.22;;;19.00;21.60;;;;;;7357388;19;20554;-66
2022/08/18 03:40:02;;;;;;;7.78;6.97;;;19.00;23.20;;;;;;7350195;19;20024;-66
2022/08/18 03:42:35;;;;;;;8.93;7.50;;;19.00;22.80;;;;;;7355996;19;20022;-67
2022/08/18 03:45:05;;;;;;;8.18;6.68;;;19.10;23.60;;;;;;7341716;19;20237;-66
2022/08/18 03:47:46;;;;;;;8.25;7.22;;;19.10;22.20;;;;;;7355613;19;20014;-66
2022/08/18 03:50:18;;;;;;;7.57;6.65;;;19.10;22.20;;;;;;7349836;19;20048;-66
2022/08/18 03:52:48;;;;;;;7.97;7.18;;;19.00;22.40;;;;;;7375229;19;20014;-67
2022/08/18 03:55:18;;;;;;;12.18;8.02;;;19.00;22.40;;;;;;7340754;19;20025;-66
2022/08/18 03:57:51;;;;;;;8.10;7.30;;;18.90;22.50;;;;;;7357780;19;20029;-66
2022/08/18 04:00:22;;;;;;;8.38;7.40;;;19.00;23.60;;;;;;7349999;19;20010;-66
2022/08/18 04:02:52;;;;;;;10.30;7.82;;;18.90;22.90;;;;;;7351238;19;20010;-67
2022/08/18 04:05:22;;;;;;;7.68;6.75;;;19.00;23.20;;;;;;7343576;19;20474;-67
2022/08/18 04:07:52;;;;;;;10.20;7.80;;;19.00;22.60;;;;;;7383375;19;20011;-66
2022/08/18 04:10:22;;;;;;;8.20;6.90;;;19.00;22.90;;;;;;7356446;19;20020;-66
2022/08/18 04:12:55;;;;;;;10.20;7.18;;;19.00;22.50;;;;;;7361359;19;20022;-66
2022/08/18 04:15:24;;;;;;;8.65;7.40;;;18.90;21.90;;;;;;7347728;19;20094;-66
2022/08/18 04:17:54;;;;;;;7.82;7.03;;;18.90;23.60;;;;;;7363841;19;20090;-67
2022/08/18 04:20:33;;;;;;;8.40;7.25;;;19.00;23.40;;;;;;7356009;19;20083;-67
2022/08/18 04:23:04;;;;;;;8.00;7.25;;;18.90;22.90;;;;;;7383200;19;20077;-66
2022/08/18 04:25:34;;;;;;;8.95;6.88;;;18.90;23.40;;;;;;7347989;19;20013;-66
2022/08/18 04:28:07;;;;;;;9.32;7.32;;;18.90;23.40;;;;;;7363322;19;20049;-66
2022/08/18 04:30:38;;;;;;;9.02;7.63;;;18.90;24.00;;;;;;7355923;19;20018;-67
2022/08/18 04:33:08;;;;;;;7.90;6.97;;;18.90;23.20;;;;;;7360084;19;20032;-66
2022/08/18 04:35:38;;;;;;;8.63;7.18;;;19.00;24.10;;;;;;7345840;19;20619;-67
2022/08/18 04:38:09;;;;;;;9.85;7.38;;;19.00;24.50;;;;;;7379445;19;20013;-68
2022/08/18 04:40:40;;;;;;;8.52;7.70;;;19.00;23.00;;;;;;7377179;19;20549;-66
2022/08/18 04:43:14;;;;;;;8.20;7.40;;;19.00;21.20;;;;;;7359307;19;20074;-66
2022/08/18 04:45:44;;;;;;;8.93;7.45;;;19.20;21.20;;;;;;7347219;19;20112;-66
2022/08/18 04:48:15;;;;;;;8.43;6.97;;;19.00;21.20;;;;;;7362714;19;20115;-66
2022/08/18 04:50:45;;;;;;;9.57;8.13;;;19.10;21.30;;;;;;7355652;19;20581;-67
2022/08/18 04:55:58;;;;;;;13.77;9.32;;;19.20;21.90;;;;;;7368554;19;20021;-67
2022/08/18 04:58:31;;;;;;;8.95;8.05;;;19.30;21.40;;;;;;7362576;19;20017;-68
2022/08/18 05:01:02;;;;;;;9.43;7.80;;;19.30;21.90;;;;;;7353878;19;20006;-66
2022/08/18 05:03:32;;;;;;;9.10;7.75;;;19.30;21.40;;;;;;7360249;19;20010;-66
2022/08/18 05:06:06;;;;;;;8.43;7.55;;;19.20;21.30;;;;;;7343965;19;20021;-66
2022/08/18 05:08:36;;;;;;;9.20;8.25;;;19.20;21.40;;;;;;7363353;19;20010;-67
2022/08/18 05:11:10;;;;;;;9.13;8.23;;;19.40;21.40;;;;;;7355511;19;20014;-67
2022/08/18 05:13:43;;;;;;;9.15;7.90;;;19.50;19.40;;;;;;7382315;19;20132;-66
2022/08/18 05:16:13;;;;;;;11.05;7.88;;;20.00;16.60;;;;;;7351338;19;20010;-67
2022/08/18 05:18:56;;;;;;;9.18;7.85;;;19.90;16.30;;;;;;7361718;19;20015;-66
2022/08/18 05:21:26;;;;;;;8.38;7.45;;;19.50;16.90;;;;;;7353723;19;20002;-66
2022/08/18 05:23:56;;;;;;;12.73;9.93;;;19.60;18.10;;;;;;7350655;19;20102;-67
2022/08/18 05:26:26;;;;;;;8.77;7.65;;;19.60;18.10;;;;;;7360953;19;20021;-67
2022/08/18 05:28:59;;;;;;;10.20;7.43;;;19.80;15.90;;;;;;7384415;19;20014;-67
2022/08/18 05:31:48;;;;;;;10.23;7.63;;;20.20;14.70;;;;;;7353780;19;20086;-67
2022/08/18 05:34:19;;;;;;;11.18;7.72;;;20.30;11.70;;;;;;7347907;19;20017;-65
2022/08/18 05:37:05;;;;;;;8.88;7.65;;;20.90;8.60;;;;;;7356780;19;20014;-67
2022/08/18 05:39:42;;;;;;;8.27;7.47;;;20.90;6.80;;;;;;7353388;19;20554;-67
2022/08/18 05:42:16;;;;;;;8.75;7.65;;;21.30;3.30;;;;;;7359796;19;20007;-66
2022/08/18 05:44:49;;;;;;;;;;;21.80;1.00;;;;;;7343717;19;20369;-66
2022/08/18 05:47:25;;;;;;;7.43;6.70;;;22.00;1.00;;;;;;7359333;19;19930;-65
2022/08/18 05:49:57;;;;;;;8.88;7.13;;;21.30;1.00;;;;;;7375557;19;20081;-66
2022/08/18 05:52:37;;;;;;;9.52;7.07;;;21.20;3.10;;;;;;7359167;19;20126;-66
2022/08/18 05:58:01;;;;;;;10.80;7.22;;;21.80;1.00;;;;;;7361788;19;20461;-67
2022/08/18 06:00:34;;;;;;;10.50;6.97;;;21.50;1.00;;;;;;7353104;19;20014;-67
2022/08/18 06:03:11;;;;;;;9.75;6.68;;;21.70;1.00;;;;;;7355843;19;20026;-66
2022/08/18 06:05:48;;;;;;;7.45;6.68;;;21.50;1.00;;;;;;7344130;19;20421;-66
2022/08/18 06:08:21;;;;;;;9.35;6.68;;;21.40;1.00;;;;;;7360355;19;20011;-66
2022/08/18 06:10:53;;;;;;;7.63;6.93;;;21.20;1.00;;;;;;7372506;19;20015;-66
2022/08/18 06:13:23;;;;;;;9.35;6.85;;;21.00;1.00;;;;;;7357752;19;20437;-66
2022/08/18 06:16:05;;;;;;;7.43;6.30;;;21.10;1.60;;;;;;7342585;19;20093;-66
2022/08/18 06:18:48;;;;;;;7.47;6.78;;;21.20;1.00;;;;;;7361284;19;20105;-66
2022/08/18 06:21:40;;;;;;;8.65;6.78;;;21.20;1.00;;;;;;7350797;19;20086;-67
2022/08/18 06:24:19;;;;;;;7.10;6.40;;;21.20;1.20;;;;;;7344457;19;20017;-67
2022/08/18 06:26:58;;;;;;;7.63;6.90;;;21.10;1.00;;;;;;7353811;19;20021;-67
2022/08/18 06:29:46;;;;;;;10.35;6.47;;;21.00;1.00;;;;;;7354617;19;20055;-67
2022/08/18 06:32:29;;;;;;;8.25;7.20;;;21.00;3.30;;;;;;7357478;19;20006;-67
2022/08/18 06:35:11;;;;;;;10.55;7.43;;;21.00;1.80;;;;;;7362805;19;20475;-66
2022/08/18 06:40:31;;;;;;;11.50;8.15;;;20.70;1.00;;;;;;7352798;19;20014;-66
2022/08/18 06:43:01;;;;;;;7.85;6.82;;;21.00;1.90;;;;;;7354752;19;20054;-67
2022/08/18 06:45:37;;;;;;;9.82;7.13;;;21.20;1.30;;;;;;7342473;19;20013;-67
2022/08/18 06:48:18;;;;;;;8.57;7.35;;;21.40;1.00;;;;;;7358671;19;20481;-67
2022/08/18 06:50:55;;;;;;;7.75;7.05;;;21.40;1.00;;;;;;7350329;19;20017;-66
2022/08/18 06:53:45;;;;;;;9.50;7.10;;;21.50;1.00;;;;;;7355607;19;20028;-66
2022/08/18 06:56:23;;;;;;;7.75;6.75;;;21.50;1.00;;;;;;7347426;19;20007;-67
2022/08/18 06:58:55;;;;;;;8.60;7.18;;;21.50;1.00;;;;;;7381235;19;20569;-67
2022/08/18 07:01:28;;;;;;;8.00;6.82;;;21.50;1.00;;;;;;7349006;19;20003;-67
2022/08/18 07:04:00;;;;;;;8.25;6.90;;;21.80;1.00;;;;;;7346308;19;20370;-66
2022/08/18 07:06:32;;;;;;;7.18;6.13;;;21.90;1.00;;;;;;7353658;19;20010;-66
2022/08/18 07:09:22;;;;;;;6.18;5.57;;;21.80;1.00;;;;;;7357508;19;20017;-67
2022/08/18 07:12:09;;;;;;;6.93;5.72;;;21.60;1.00;;;;;;7353744;19;20006;-68
2022/08/18 07:14:49;;;;;;;6.38;5.78;;;21.40;1.00;;;;;;7341835;19;20044;-67
2022/08/18 07:17:24;;;;;;;6.45;5.85;;;21.50;1.00;;;;;;7356851;19;20430;-66
2022/08/18 07:20:25;;;;;;;7.43;5.95;;;21.50;1.00;;;;;;7352867;19;20034;-67
2022/08/18 07:22:58;;;;;;;6.75;6.05;;;21.80;1.00;;;;;;7375159;19;20014;-67
2022/08/18 07:25:32;;;;;;;7.65;6.85;;;21.90;1.00;;;;;;7342837;19;20036;-67
2022/08/18 07:28:02;;;;;;;7.30;6.50;;;22.00;1.00;;;;;;7356990;19;20086;-67
2022/08/18 07:30:38;;;;;;;7.93;6.53;;;21.90;1.00;;;;;;7349159;19;20479;-66
2022/08/18 07:33:27;;;;;;;7.18;6.32;;;21.60;1.00;;;;;;7354081;19;20020;-67
2022/08/18 07:36:05;;;;;;;6.72;5.47;;;21.90;1.00;;;;;;7339417;19;20014;-67
2022/08/18 07:38:41;;;;;;;5.65;5.15;;;21.90;1.00;;;;;;7357016;19;20014;-67
2022/08/18 07:41:19;;;;;;;7.80;5.65;;;21.40;1.00;;;;;;7347237;19;20010;-67
2022/08/18 07:44:01;;;;;;;8.23;5.43;;;20.80;1.00;;;;;;7369661;19;20018;-67
2022/08/18 07:46:39;;;;;;;6.03;5.43;;;21.10;1.00;;;;;;7348536;19;20125;-66
2022/08/18 07:49:09;;;;;;;6.60;5.95;;;21.00;1.00;;;;;;7355253;19;20018;-67
2022/08/18 07:51:48;;;;;;;6.72;6.03;;;21.00;1.00;;;;;;7345307;19;20014;-67
2022/08/18 07:54:32;;;;;;;6.50;5.55;;;21.20;1.00;;;;;;7342934;19;20015;-65
2022/08/18 07:57:30;;;;;;;7.10;6.00;;;20.90;1.00;;;;;;7356139;19;20009;-67
2022/08/18 08:00:11;;;;;;;9.32;6.22;;;20.70;1.00;;;;;;7347337;19;20017;-67
2022/08/18 08:03:05;;;;;;;6.95;6.25;;;20.80;1.60;;;;;;7352813;19;20061;-67
2022/08/18 08:05:44;;;;;;;10.27;7.13;;;21.10;1.70;;;;;;7338979;19;20134;-68
2022/08/18 08:08:24;;;;;;;7.30;6.60;;;20.80;1.50;;;;;;7356378;19;20026;-66
2022/08/18 08:11:07;;;;;;;8.15;7.15;;;20.50;3.10;;;;;;7368703;19;20102;-67
2022/08/18 08:13:50;;;;;;;9.82;7.30;;;20.80;3.30;;;;;;7350771;19;20010;-67
2022/08/18 08:16:36;;;;;;;8.43;7.05;;;20.80;2.10;;;;;;7348766;19;20011;-66
2022/08/18 08:19:24;;;;;;;7.90;7.10;;;20.90;3.60;;;;;;7355672;19;20553;-67
2022/08/18 08:22:20;;;;;;;9.30;6.78;;;20.80;3.70;;;;;;7351264;19;20018;-67
2022/08/18 08:25:02;;;;;;;8.50;7.00;;;20.70;4.40;;;;;;7338054;19;20393;-66
2022/08/18 08:27:47;;;;;;;13.52;10.27;;;20.90;4.90;;;;;;7355398;19;20561;-67
2022/08/18 08:30:21;;;;;;;10.45;8.50;;;21.00;3.50;;;;;;7346778;19;20098;-66
2022/08/18 08:33:08;;;;;;;10.93;7.75;;;21.10;3.50;;;;;;7353057;19;20749;-67
2022/08/18 08:35:44;;;;;;;9.30;6.57;;;21.10;3.30;;;;;;7339121;19;20495;-67
2022/08/18 08:38:36;;;;;;;14.95;7.47;;;21.00;4.50;;;;;;7354756;19;20015;-68
2022/08/18 08:41:36;;;;;;;9.00;6.88;;;20.90;4.10;;;;;;7346832;19;20047;-67
2022/08/18 08:44:13;;;;;;;11.27;6.90;;;20.80;4.80;;;;;;7360822;19;20605;-67
2022/08/18 08:46:50;;;;;;;11.20;7.30;;;21.00;4.20;;;;;;7350454;19;20011;-66
2022/08/18 08:49:34;;;;;;;7.20;6.43;;;21.10;3.10;;;;;;7354205;19;20014;-66
2022/08/18 08:52:34;;;;;;;10.57;7.05;;;21.10;4.40;;;;;;7351839;19;20014;-68
2022/08/18 08:55:10;;;;;;;9.48;6.93;;;21.10;2.80;;;;;;7345655;19;20072;-66
2022/08/18 08:57:50;;;;;;;8.45;6.70;;;21.30;2.70;;;;;;7362173;19;20014;-68
2022/08/18 09:00:21;;;;;;;8.85;7.20;;;21.30;3.00;;;;;;7340306;19;20479;-68
2022/08/18 09:03:01;;;;;;;8.95;6.40;;;21.70;1.00;;;;;;7353844;19;20511;-67
2022/08/18 09:05:36;;;;;;;7.90;7.10;;;21.90;1.00;;;;;;7351637;19;20074;-67
2022/08/18 09:08:33;;;;;;;7.30;6.53;;;21.60;1.00;;;;;;7383387;19;20074;-67
2022/08/18 09:11:26;;;;;;;7.78;6.65;;;21.80;1.00;;;;;;7254360;19;2004199;-67
2022/08/18 09:14:22;;;;;;;7.10;6.43;;;22.10;1.00;;;;;;7378835;19;20022;-67
2022/08/18 09:17:08;;;;;;;10.32;6.30;;;21.70;1.00;;;;;;7359349;19;20017;-68
2022/08/18 09:19:55;;;;;;;10.68;6.65;;;22.30;1.00;;;;;;7359967;19;20014;-67
2022/08/18 09:22:38;;;;;;;7.60;6.82;;;22.20;1.00;;;;;;7359675;19;20659;-67
2022/08/18 09:25:12;;;;;;;8.95;7.53;;;22.40;1.00;;;;;;7354185;19;20025;-68
2022/08/18 09:27:44;;;;;;;10.10;8.07;;;22.00;1.00;;;;;;7363273;19;20122;-68
2022/08/18 09:30:47;;;;;;;10.57;7.63;;;22.10;1.00;;;;;;7356332;19;20022;-68
2022/08/18 09:33:35;;;;;;;7.57;6.88;;;22.50;1.00;;;;;;7358213;19;20007;-67
2022/08/18 09:36:32;;;;;;;7.95;7.15;;;22.50;1.00;;;;;;7351718;19;20041;-67
2022/08/18 09:42:08;;;;;;;9.98;7.68;;;22.60;1.00;;;;;;7361107;19;20010;-67
2022/08/18 09:45:01;;;;;;;9.45;7.22;;;22.80;1.00;;;;;;7350184;19;20011;-68
2022/08/18 09:48:24;;;;;;;7.43;6.72;;;22.90;1.00;;;;;;7361164;19;20014;-67
2022/08/18 09:51:32;;;;;;;8.93;7.25;;;23.00;1.00;;;;;;7355940;19;20011;-68
2022/08/18 09:54:20;;;;;;;7.30;6.60;;;23.20;1.00;;;;;;7353249;19;20097;-67
2022/08/18 09:57:19;;;;;;;7.57;6.88;;;23.50;1.00;;;;;;7358153;19;20090;-67
2022/08/18 10:00:00;;;;;;;7.78;6.97;;;24.10;1.00;;;;;;7357414;19;20440;-67
2022/08/18 10:03:12;;;;;;;10.55;7.47;;;23.80;1.00;;;;;;7359651;19;20079;-67
2022/08/18 10:06:01;;;;;;;9.10;8.25;;;23.70;1.00;;;;;;7349810;19;20011;-68
2022/08/18 10:08:43;;;;;;;9.38;8.48;;;24.00;1.00;;;;;;7363047;19;20131;-68
2022/08/18 10:11:29;;;;;;;10.00;8.05;;;24.00;1.00;;;;;;7340364;19;20006;-67
2022/08/18 10:14:27;;;;;;;8.68;7.93;;;23.90;1.00;;;;;;7368722;19;20033;-66
2022/08/18 10:17:11;;;;;;;8.77;7.50;;;23.60;1.00;;;;;;7353588;19;20010;-67
2022/08/18 10:20:02;;;;;;;9.35;7.35;;;23.50;1.00;;;;;;7354117;19;20002;-67
2022/08/18 10:22:44;;;;;;;8.60;7.75;;;23.80;1.00;;;;;;7357556;19;20488;-68
2022/08/18 10:25:31;;;;;;;12.27;7.68;;;23.60;1.00;;;;;;7341840;19;20023;-67
2022/08/18 10:28:04;;;;;;;8.55;7.60;;;23.80;1.00;;;;;;7359089;19;20011;-67
2022/08/18 10:31:01;;;;;;;10.40;8.80;;;23.90;1.00;;;;;;7353878;19;20097;-67
2022/08/18 10:33:58;;;;;;;11.93;8.85;;;23.80;1.00;;;;;;7357087;19;20039;-67
2022/08/18 10:36:41;;;;;;;8.98;8.07;;;24.20;1.00;;;;;;7359262;19;20015;-67
2022/08/18 10:39:17;;;;;;;8.65;7.47;;;24.20;1.00;;;;;;7363517;19;20516;-67
2022/08/18 10:41:59;;;;;;;11.10;8.50;;;24.40;1.00;;;;;;7363148;19;20489;-68
2022/08/18 10:44:33;;;;;;;8.80;7.88;;;24.60;1.00;;;;;;7356329;19;20004;-67
2022/08/18 10:47:04;;;;;;;8.25;7.30;;;24.60;1.00;;;;;;7380509;19;20023;-66
2022/08/18 10:49:41;;;;;;;8.63;7.78;;;25.10;1.00;;;;;;7361143;19;20377;-67
2022/08/18 10:52:38;;;;;;;10.10;8.95;;;24.80;1.00;;;;;;7361288;19;20010;-66
2022/08/18 10:55:37;;;;;;;9.13;8.23;;;24.70;1.00;;;;;;7356701;19;20007;-68
2022/08/18 10:58:50;;;;;;;10.43;9.27;;;24.40;1.00;;;;;;7362551;19;20017;-67
2022/08/18 11:01:39;;;;;;;11.55;10.48;;;24.20;1.00;;;;;;7360264;19;20014;-67
2022/08/18 11:04:13;;;;;;;9.35;8.50;;;24.40;1.00;;;;;;7356165;19;20025;-68
2022/08/18 11:07:13;;;;;;;9.38;8.48;;;24.70;1.00;;;;;;7360614;19;20014;-68
2022/08/18 11:09:48;;;;;;;9.35;8.45;;;24.50;1.00;;;;;;7359606;19;20010;-67
2022/08/18 11:12:59;;;;;;;10.15;9.02;;;24.40;1.00;;;;;;7360909;19;20010;-68
2022/08/18 11:15:59;;;;;;;10.30;8.82;;;25.00;1.00;;;;;;7354415;19;20025;-67
2022/08/18 11:18:35;;;;;;;10.77;8.50;;;25.10;1.00;;;;;;7361540;19;20022;-66
2022/08/18 11:21:35;;;;;;;15.23;9.23;;;24.70;1.00;;;;;;7360630;19;20359;-67
2022/08/18 11:24:19;;;;;;;10.25;9.13;;;24.90;1.00;;;;;;7357217;19;20010;-66
2022/08/18 11:26:52;;;;;;;13.10;9.57;;;24.70;1.00;;;;;;7357090;19;20344;-66
2022/08/18 11:29:30;;;;;;;9.52;8.52;;;24.80;1.00;;;;;;7360602;19;20014;-67
2022/08/18 11:32:07;;;;;;;11.90;9.20;;;24.90;1.00;;;;;;7381045;19;20489;-68
2022/08/18 11:35:04;;;;;;;10.48;8.65;;;24.70;1.00;;;;;;7354832;19;20102;-68
2022/08/18 11:37:44;;;;;;;11.30;9.90;;;25.00;1.00;;;;;;7357210;19;20060;-66
2022/08/18 11:40:33;;;;;;;10.13;9.13;;;24.80;1.00;;;;;;7357850;19;20011;-67
2022/08/18 11:43:27;;;;;;;9.48;8.45;;;24.80;1.00;;;;;;7359300;19;20015;-67
2022/08/18 11:46:16;;;;;;;9.45;8.20;;;24.90;1.00;;;;;;7353157;19;20014;-67
2022/08/18 11:48:54;;;;;;;10.02;9.02;;;25.60;1.00;;;;;;7360038;19;20492;-68
2022/08/18 11:51:27;;;;;;;8.82;7.45;;;25.30;1.00;;;;;;7354361;19;20014;-68
2022/08/18 11:54:00;;;;;;;9.38;8.38;;;25.40;1.00;;;;;;7355937;19;20601;-67
2022/08/18 11:56:32;;;;;;;11.67;8.37;;;25.30;1.00;;;;;;7357810;19;20470;-68
2022/08/18 11:59:09;;;;;;;10.90;9.48;;;25.60;1.00;;;;;;7382232;19;20427;-67
2022/08/18 12:01:51;;;;;;;10.95;7.95;;;25.60;1.00;;;;;;7357827;19;20021;-68
2022/08/18 12:04:30;;;;;;;10.57;8.32;;;25.40;1.00;;;;;;7355817;19;20462;-66
2022/08/18 12:07:04;;;;;;;9.43;8.40;;;24.90;1.00;;;;;;7357346;19;20023;-68
2022/08/18 12:09:38;;;;;;;10.73;7.60;;;25.10;1.00;;;;;;7358603;19;20011;-68
2022/08/18 12:12:31;;;;;;;9.55;7.95;;;25.60;1.00;;;;;;7359492;19;20386;-68
2022/08/18 12:15:03;;;;;;;8.77;7.25;;;25.30;1.00;;;;;;7354677;19;20021;-69
2022/08/18 12:17:56;;;;;;;9.55;7.60;;;25.20;1.00;;;;;;7358013;19;20738;-68
2022/08/18 12:20:26;;;;;;;7.87;7.17;;;25.50;1.00;;;;;;7358919;19;20021;-68
2022/08/18 12:22:58;;;;;;;10.98;8.05;;;25.80;1.00;;;;;;7380691;19;20115;-68
2022/08/18 12:25:28;;;;;;;10.60;8.18;;;25.60;1.00;;;;;;7355065;19;20061;-68
2022/08/18 12:27:59;;;;;;;12.25;7.70;;;25.80;1.00;;;;;;7366691;19;20011;-68
2022/08/18 12:30:29;;;;;;;8.10;7.30;;;26.00;1.00;;;;;;7364738;19;20466;-67
2022/08/18 12:33:03;;;;;;;10.82;8.63;;;26.00;1.00;;;;;;7366817;19;20089;-67
2022/08/18 12:35:41;;;;;;;8.95;8.02;;;26.20;1.00;;;;;;7359317;19;20152;-66
2022/08/18 12:38:11;;;;;;;10.48;8.60;;;25.80;1.00;;;;;;7363541;19;20016;-67
2022/08/18 12:40:44;;;;;;;9.55;8.13;;;25.50;1.00;;;;;;7385816;19;20018;-67
2022/08/18 12:43:14;;;;;;;10.10;8.43;;;25.90;1.00;;;;;;7364692;19;20125;-67
2022/08/18 12:45:45;;;;;;;9.40;8.40;;;26.20;1.00;;;;;;7359681;19;20014;-67
2022/08/18 12:48:17;;;;;;;11.55;9.27;;;26.10;1.00;;;;;;7366322;19;20078;-67
2022/08/18 12:50:51;;;;;;;9.65;8.65;;;25.90;1.00;;;;;;7365482;19;20038;-67
2022/08/18 12:53:41;;;;;;;11.30;8.60;;;26.00;1.00;;;;;;7364618;19;20010;-68
2022/08/18 12:56:31;;;;;;;10.85;9.77;;;26.20;1.00;;;;;;7389879;19;20537;-68
2022/08/18 12:59:03;;;;;;;9.05;8.13;;;26.10;1.00;;;;;;7394176;19;20037;-67
2022/08/18 13:01:34;;;;;;;10.45;8.45;;;26.10;1.00;;;;;;7387737;19;20333;-67
2022/08/18 13:04:07;;;;;;;9.20;8.27;;;26.10;1.00;;;;;;7386174;19;20797;-68
2022/08/18 13:06:47;;;;;;;8.63;7.78;;;26.20;1.00;;;;;;7389528;19;20014;-68
2022/08/18 13:09:31;;;;;;;9.65;7.22;;;26.30;1.00;;;;;;7391624;19;20473;-67
2022/08/18 13:12:18;;;;;;;10.80;7.13;;;26.30;1.00;;;;;;7393625;19;20014;-68
2022/08/18 13:14:49;;;;;;;8.50;7.68;;;26.40;1.00;;;;;;7383411;19;20027;-67
2022/08/18 13:17:21;;;;;;;10.73;7.55;;;26.50;1.00;;;;;;7389243;19;20014;-67
2022/08/18 13:20:09;;;;;;;7.88;7.18;;;26.40;1.00;;;;;;7387978;19;20046;-66
2022/08/18 13:22:42;;;;;;;7.40;6.70;;;26.50;1.00;;;;;;7358107;19;20018;-66
2022/08/18 13:25:14;;;;;;;8.32;7.15;;;26.60;1.00;;;;;;7348138;19;20018;-66
2022/08/18 13:28:05;;;;;;;8.48;7.60;;;26.30;1.00;;;;;;7364492;19;20021;-67
2022/08/18 13:30:35;;;;;;;9.23;7.55;;;26.20;1.00;;;;;;7363165;19;20006;-67
2022/08/18 13:33:07;;;;;;;8.00;7.20;;;26.50;1.00;;;;;;7362607;19;20086;-67
2022/08/18 13:35:59;;;;;;;8.18;6.68;;;26.70;1.00;;;;;;7359201;19;20470;-68
2022/08/18 13:38:30;;;;;;;9.38;6.55;;;26.60;1.00;;;;;;7383468;19;20089;-69
2022/08/18 13:41:03;;;;;;;8.77;6.95;;;26.60;1.00;;;;;;7360982;19;20426;-69
2022/08/18 13:43:37;;;;;;;7.97;6.10;;;26.50;1.00;;;;;;7362760;19;20014;-68
2022/08/18 13:46:09;;;;;;;8.63;6.80;;;26.80;1.00;;;;;;7358126;19;20091;-70
2022/08/18 13:48:40;;;;;;;7.43;6.45;;;27.10;1.00;;;;;;7364127;19;20015;-69
2022/08/18 13:51:25;;;;;;;8.50;6.65;;;27.00;1.00;;;;;;7360706;19;20006;-69
2022/08/18 13:53:56;;;;;;;6.90;5.90;;;27.40;1.00;;;;;;7358556;19;20054;-69
2022/08/18 13:56:47;;;;;;;7.15;6.45;;;27.40;1.00;;;;;;7359036;19;20022;-68
2022/08/18 13:59:22;;;;;;;7.05;6.10;;;26.90;1.00;;;;;;7386539;19;20110;-68
2022/08/18 14:01:53;;;;;;;10.45;6.07;;;27.50;1.00;;;;;;7362993;19;20026;-69
2022/08/18 14:04:23;;;;;;;9.25;6.25;;;27.50;1.00;;;;;;7359898;19;20377;-68
2022/08/18 14:06:59;;;;;;;7.75;6.20;;;27.20;1.00;;;;;;7361999;19;20790;-70